createdAt,value
2019-05-23T00:00:20.013Z,56.70
2019-05-23T00:01:54.434Z,56.50
2019-05-23T00:03:23.968Z,56.30
2019-05-23T00:05:03.818Z,55.70
2019-05-23T00:06:30.284Z,55.40
2019-05-23T00:07:56.973Z,55.50
2019-05-23T00:09:22.923Z,55.20
2019-05-23T00:11:10.293Z,54.00
2019-05-23T00:12:48.276Z,54.50
2019-05-23T00:14:31.736Z,53.50
2019-05-23T00:15:58.517Z,53.70
2019-05-23T00:17:26.156Z,52.80
2019-05-23T00:18:52.180Z,52.90
2019-05-23T00:20:19.423Z,52.50
2019-05-23T00:21:45.704Z,52.10
2019-05-23T00:23:13.186Z,51.80
2019-05-23T00:24:40.710Z,51.90
2019-05-23T00:26:07.659Z,51.60
2019-05-23T00:27:34.338Z,51.80
2019-05-23T00:29:10.055Z,51.90
2019-05-23T00:30:47.416Z,51.80
2019-05-23T00:32:22.024Z,51.20
2019-05-23T00:33:48.150Z,51.40
2019-05-23T00:35:14.996Z,50.70
2019-05-23T00:36:42.815Z,50.70
2019-05-23T00:38:10.009Z,50.40
2019-05-23T00:39:36.419Z,50.50
2019-05-23T00:41:02.887Z,51.30
2019-05-23T00:42:29.459Z,51.30
2019-05-23T00:43:56.319Z,51.50
2019-05-23T00:45:23.444Z,50.80
2019-05-23T00:46:49.170Z,51.00
2019-05-23T00:48:15.730Z,50.90
2019-05-23T00:49:41.696Z,49.90
2019-05-23T00:51:07.884Z,49.80
2019-05-23T00:52:33.667Z,50.00
2019-05-23T00:54:00.028Z,50.00
2019-05-23T00:55:26.523Z,49.80
2019-05-23T00:56:53.736Z,49.70
2019-05-23T00:58:20.032Z,50.10
2019-05-23T00:59:48.104Z,49.70
2019-05-23T01:01:14.639Z,49.30
2019-05-23T01:02:41.261Z,49.80
2019-05-23T01:04:07.259Z,49.80
2019-05-23T01:05:33.455Z,49.50
2019-05-23T01:06:59.781Z,49.40
2019-05-23T01:08:26.944Z,49.60
2019-05-23T01:09:52.364Z,49.40
2019-05-23T01:11:19.236Z,49.20
2019-05-23T01:12:45.991Z,49.00
2019-05-23T01:14:12.027Z,49.40
2019-05-23T01:15:39.925Z,49.20
2019-05-23T01:17:06.425Z,49.60
2019-05-23T01:18:32.415Z,49.00
2019-05-23T01:19:59.478Z,48.70
2019-05-23T01:21:53.180Z,49.30
2019-05-23T01:23:20.599Z,48.60
2019-05-23T01:24:49.143Z,48.70
2019-05-23T01:26:16.181Z,49.10
2019-05-23T01:27:49.489Z,49.40
2019-05-23T01:29:16.435Z,49.20
2019-05-23T01:30:45.431Z,49.20
2019-05-23T01:32:17.062Z,48.90
2019-05-23T01:33:43.591Z,48.80
2019-05-23T01:35:10.215Z,48.20
2019-05-23T01:36:37.633Z,48.50
2019-05-23T01:38:04.413Z,48.50
2019-05-23T01:39:30.764Z,48.90
2019-05-23T01:40:56.308Z,48.50
2019-05-23T01:42:23.147Z,48.50
2019-05-23T01:43:50.020Z,48.90
2019-05-23T01:45:18.378Z,48.60
2019-05-23T01:46:53.717Z,48.60
2019-05-23T01:48:20.389Z,48.90
2019-05-23T01:49:47.218Z,49.40
2019-05-23T01:51:14.682Z,49.50
2019-05-23T01:52:42.055Z,49.80
2019-05-23T01:54:09.981Z,49.70
2019-05-23T01:55:35.572Z,49.90
2019-05-23T01:57:01.615Z,49.50
2019-05-23T01:58:27.551Z,49.70
2019-05-23T02:00:08.136Z,49.70
2019-05-23T02:01:22.352Z,49.80
2019-05-23T02:02:49.281Z,49.70
2019-05-23T02:04:15.129Z,50.00
2019-05-23T02:05:42.274Z,50.20
2019-05-23T02:07:09.493Z,50.30
2019-05-23T02:08:37.299Z,50.10
2019-05-23T02:10:03.612Z,49.90
2019-05-23T02:11:29.756Z,49.60
2019-05-23T02:12:56.826Z,49.50
2019-05-23T02:14:24.093Z,49.70
2019-05-23T02:15:49.723Z,49.90
2019-05-23T02:17:15.848Z,50.00
2019-05-23T02:18:42.545Z,49.80
2019-05-23T02:20:09.403Z,49.60
2019-05-23T02:21:35.363Z,50.00
2019-05-23T02:23:02.041Z,49.90
2019-05-23T02:24:28.397Z,49.90
2019-05-23T02:25:55.060Z,49.90
2019-05-23T02:27:20.541Z,49.50
2019-05-23T02:28:46.939Z,49.50
2019-05-23T02:30:33.362Z,49.80
2019-05-23T02:31:44.509Z,49.70
2019-05-23T02:33:10.457Z,50.00
2019-05-23T02:34:37.040Z,49.90
2019-05-23T02:36:03.190Z,49.50
2019-05-23T02:37:50.720Z,49.80
2019-05-23T02:39:33.268Z,49.90
2019-05-23T02:41:33.302Z,50.10
2019-05-23T02:43:01.744Z,50.20
2019-05-23T02:44:28.856Z,50.20
2019-05-23T02:45:59.888Z,50.40
2019-05-23T02:47:42.221Z,50.30
2019-05-23T02:49:12.155Z,50.30
2019-05-23T02:50:46.456Z,50.10
2019-05-23T02:52:40.625Z,50.10
2019-05-23T02:54:10.315Z,50.30
2019-05-23T02:55:41.042Z,50.10
2019-05-23T02:57:08.666Z,49.70
2019-05-23T02:58:45.034Z,49.70
2019-05-23T03:00:54.103Z,49.50
2019-05-23T03:03:01.456Z,49.80
2019-05-23T03:04:31.740Z,49.80
2019-05-23T03:05:57.810Z,49.20
2019-05-23T03:07:27.584Z,49.40
2019-05-23T03:08:54.697Z,49.50
2019-05-23T03:10:24.770Z,49.70
2019-05-23T03:11:52.946Z,49.60
2019-05-23T03:13:21.667Z,49.60
2019-05-23T03:14:49.134Z,49.40
2019-05-23T03:16:19.896Z,49.40
2019-05-23T03:17:50.137Z,49.10
2019-05-23T03:19:29.641Z,49.30
2019-05-23T03:20:55.832Z,49.30
2019-05-23T03:22:36.850Z,49.60
2019-05-23T03:24:05.777Z,49.20
2019-05-23T03:26:12.931Z,48.50
2019-05-23T03:27:45.184Z,48.20
2019-05-23T03:29:12.717Z,48.70
2019-05-23T03:30:40.430Z,48.50
2019-05-23T03:32:23.687Z,48.50
2019-05-23T03:33:50.431Z,48.30
2019-05-23T03:35:33.932Z,48.60
2019-05-23T03:36:59.602Z,48.60
2019-05-23T03:38:26.184Z,48.00
2019-05-23T03:39:52.069Z,47.70
2019-05-23T03:41:18.192Z,47.10
2019-05-23T03:42:43.986Z,47.80
2019-05-23T03:44:10.956Z,48.10
2019-05-23T03:45:40.362Z,48.00
2019-05-23T03:47:08.041Z,48.30
2019-05-23T03:48:33.822Z,48.00
2019-05-23T03:50:00.881Z,48.30
2019-05-23T03:51:27.045Z,48.50
2019-05-23T03:52:53.929Z,47.70
2019-05-23T03:54:21.144Z,47.70
2019-05-23T03:55:51.013Z,46.70
2019-05-23T03:57:18.677Z,46.60
2019-05-23T03:58:45.774Z,45.80
2019-05-23T04:00:14.619Z,45.20
2019-05-23T04:01:47.807Z,44.90
2019-05-23T04:03:09.500Z,44.90
2019-05-23T04:04:35.547Z,44.60
2019-05-23T04:06:02.295Z,44.80
2019-05-23T04:07:29.864Z,44.90
2019-05-23T04:08:56.652Z,45.50
2019-05-23T04:10:23.268Z,45.00
2019-05-23T04:11:49.155Z,44.70
2019-05-23T04:13:15.361Z,44.20
2019-05-23T04:14:41.440Z,44.50
2019-05-23T04:16:08.132Z,43.80
2019-05-23T04:17:34.452Z,44.40
2019-05-23T04:19:00.573Z,43.10
2019-05-23T04:20:26.201Z,43.70
2019-05-23T04:21:52.675Z,43.60
2019-05-23T04:23:18.317Z,43.50
2019-05-23T04:24:44.661Z,43.70
2019-05-23T04:26:10.209Z,43.60
2019-05-23T04:27:36.340Z,43.50
2019-05-23T04:29:02.168Z,43.20
2019-05-23T04:30:31.782Z,43.60
2019-05-23T04:32:07.918Z,43.40
2019-05-23T04:33:25.807Z,43.30
2019-05-23T04:34:51.384Z,43.10
2019-05-23T04:36:17.948Z,43.30
2019-05-23T04:37:43.431Z,43.10
2019-05-23T04:39:21.351Z,43.10
2019-05-23T04:40:50.220Z,43.40
2019-05-23T04:42:16.484Z,43.40
2019-05-23T04:43:58.671Z,42.80
2019-05-23T04:45:23.986Z,43.10
2019-05-23T04:46:50.263Z,42.50
2019-05-23T04:48:16.419Z,43.30
2019-05-23T04:49:42.103Z,43.00
2019-05-23T04:51:09.440Z,42.70
2019-05-23T04:52:35.513Z,43.00
2019-05-23T04:54:02.631Z,42.60
2019-05-23T04:55:28.813Z,42.90
2019-05-23T04:56:54.984Z,42.70
2019-05-23T04:58:20.535Z,42.50
2019-05-23T04:59:47.184Z,42.70
2019-05-23T05:01:12.748Z,43.50
2019-05-23T05:02:40.554Z,43.40
2019-05-23T05:04:07.495Z,44.20
2019-05-23T05:05:33.965Z,43.30
2019-05-23T05:06:59.441Z,43.00
2019-05-23T05:08:25.575Z,43.10
2019-05-23T05:09:51.125Z,43.30
2019-05-23T05:11:17.200Z,43.00
2019-05-23T05:12:42.883Z,43.10
2019-05-23T05:14:09.032Z,42.90
2019-05-23T05:15:35.607Z,43.50
2019-05-23T05:17:02.680Z,43.60
2019-05-23T05:18:29.086Z,43.90
2019-05-23T05:19:55.311Z,43.90
2019-05-23T05:21:20.943Z,44.30
2019-05-23T05:22:48.019Z,44.70
2019-05-23T05:24:13.855Z,44.70
2019-05-23T05:25:41.544Z,44.90
2019-05-23T05:27:08.958Z,45.10
2019-05-23T05:28:35.223Z,45.50
2019-05-23T05:30:00.800Z,45.50
2019-05-23T05:31:27.077Z,45.90
2019-05-23T05:32:52.667Z,46.40
2019-05-23T05:34:18.807Z,46.50
2019-05-23T05:35:44.748Z,46.50
2019-05-23T05:37:11.088Z,46.90
2019-05-23T05:38:37.348Z,47.20
2019-05-23T05:40:03.906Z,47.40
2019-05-23T05:41:29.561Z,47.10
2019-05-23T05:42:56.312Z,47.50
2019-05-23T05:44:22.463Z,47.90
2019-05-23T05:45:48.956Z,48.10
2019-05-23T05:47:15.096Z,48.30
2019-05-23T05:48:41.449Z,48.40
2019-05-23T05:50:07.940Z,48.70
2019-05-23T05:51:34.711Z,48.70
2019-05-23T05:53:00.472Z,49.30
2019-05-23T05:54:26.632Z,49.30
2019-05-23T05:55:52.201Z,49.70
2019-05-23T05:57:20.813Z,49.90
2019-05-23T05:58:46.575Z,49.60
2019-05-23T06:00:30.552Z,49.50
2019-05-23T06:01:56.732Z,49.60
2019-05-23T06:03:22.393Z,49.80
2019-05-23T06:04:48.650Z,49.80
2019-05-23T06:06:33.195Z,49.80
2019-05-23T06:07:59.033Z,49.80
2019-05-23T06:09:28.491Z,50.00
2019-05-23T06:10:53.992Z,50.30
2019-05-23T06:12:20.484Z,50.70
2019-05-23T06:13:49.256Z,51.00
2019-05-23T06:15:15.650Z,51.10
2019-05-23T06:16:41.539Z,51.30
2019-05-23T06:18:07.664Z,52.30
2019-05-23T06:19:33.168Z,51.70
2019-05-23T06:21:00.140Z,51.90
2019-05-23T06:22:26.086Z,51.70
2019-05-23T06:23:52.171Z,51.80
2019-05-23T06:25:19.708Z,52.00
2019-05-23T06:26:47.047Z,52.10
2019-05-23T06:28:14.885Z,52.90
2019-05-23T06:29:41.259Z,52.10
2019-05-23T06:31:07.527Z,52.30
2019-05-23T06:32:34.002Z,52.80
2019-05-23T06:33:59.816Z,52.20
2019-05-23T06:35:26.441Z,52.30
2019-05-23T06:36:52.050Z,52.30
2019-05-23T06:38:18.485Z,51.80
2019-05-23T06:39:44.192Z,51.40
2019-05-23T06:41:11.868Z,51.50
2019-05-23T06:42:37.662Z,51.30
2019-05-23T06:44:04.596Z,51.30
2019-05-23T06:45:30.289Z,51.10
2019-05-23T06:46:56.575Z,50.60
2019-05-23T06:48:22.438Z,50.80
2019-05-23T06:49:48.947Z,51.00
2019-05-23T06:51:14.515Z,51.50
2019-05-23T06:52:40.695Z,52.80
2019-05-23T06:54:06.924Z,53.20
2019-05-23T06:55:33.414Z,53.40
2019-05-23T06:56:58.894Z,53.40
2019-05-23T06:58:25.289Z,53.50
2019-05-23T06:59:50.817Z,53.30
2019-05-23T07:01:17.084Z,54.10
2019-05-23T07:02:43.589Z,53.80
2019-05-23T07:04:10.165Z,53.30
2019-05-23T07:05:37.848Z,53.30
2019-05-23T07:07:05.167Z,53.30
2019-05-23T07:08:32.044Z,53.40
2019-05-23T07:09:58.708Z,53.50
2019-05-23T07:11:25.658Z,54.00
2019-05-23T07:12:51.746Z,54.70
2019-05-23T07:14:17.423Z,55.20
2019-05-23T07:15:45.188Z,55.40
2019-05-23T07:17:10.932Z,55.40
2019-05-23T07:18:37.072Z,54.50
2019-05-23T07:20:03.011Z,54.60
2019-05-23T07:21:29.939Z,54.70
2019-05-23T07:22:55.744Z,54.70
2019-05-23T07:24:21.999Z,55.00
2019-05-23T07:25:47.432Z,55.00
2019-05-23T07:27:14.023Z,54.70
2019-05-23T07:28:39.907Z,54.40
2019-05-23T07:30:08.965Z,55.00
2019-05-23T07:31:35.621Z,55.30
2019-05-23T07:33:01.947Z,55.10
2019-05-23T07:34:28.038Z,55.20
2019-05-23T07:35:54.392Z,55.20
2019-05-23T07:37:20.090Z,55.50
2019-05-23T07:38:46.460Z,55.50
2019-05-23T07:40:12.334Z,56.20
2019-05-23T07:41:38.464Z,56.50
2019-05-23T07:43:04.850Z,56.50
2019-05-23T07:44:45.982Z,56.50
2019-05-23T07:45:59.440Z,55.00
2019-05-23T07:47:26.065Z,54.70
2019-05-23T07:48:52.269Z,54.20
2019-05-23T07:50:18.519Z,54.20
2019-05-23T07:51:43.956Z,54.00
2019-05-23T07:53:11.842Z,53.90
2019-05-23T07:54:43.042Z,54.50
2019-05-23T07:56:09.534Z,54.50
2019-05-23T07:57:35.839Z,54.30
2019-05-23T07:59:01.861Z,53.90
2019-05-23T08:00:31.363Z,53.80
2019-05-23T08:02:09.976Z,53.60
2019-05-23T08:03:38.828Z,53.40
2019-05-23T08:05:06.931Z,53.60
2019-05-23T08:06:32.634Z,54.30
2019-05-23T08:07:59.473Z,54.60
2019-05-23T08:09:25.231Z,54.00
2019-05-23T08:10:51.518Z,53.10
2019-05-23T08:12:17.565Z,52.90
2019-05-23T08:13:44.181Z,52.60
2019-05-23T08:15:10.437Z,51.50
2019-05-23T08:16:36.673Z,51.90
2019-05-23T08:18:03.461Z,51.20
2019-05-23T08:19:29.704Z,53.00
2019-05-23T08:20:58.085Z,55.00
2019-05-23T08:22:25.141Z,55.40
2019-05-23T08:23:50.879Z,54.20
2019-05-23T08:25:17.428Z,53.10
2019-05-23T08:26:43.176Z,52.90
2019-05-23T08:28:09.373Z,52.50
2019-05-23T08:29:35.396Z,52.00
2019-05-23T08:31:01.710Z,51.70
2019-05-23T08:32:27.141Z,51.40
2019-05-23T08:33:53.905Z,51.40
2019-05-23T08:35:19.559Z,52.20
2019-05-23T08:36:45.600Z,54.00
2019-05-23T08:38:11.701Z,54.90
2019-05-23T08:39:38.949Z,55.00
2019-05-23T08:41:06.112Z,55.70
2019-05-23T08:42:32.339Z,55.90
2019-05-23T08:43:58.387Z,56.50
2019-05-23T08:45:24.591Z,55.90
2019-05-23T08:46:50.149Z,54.90
2019-05-23T08:48:16.704Z,55.20
2019-05-23T08:49:42.695Z,54.20
2019-05-23T08:51:08.883Z,54.30
2019-05-23T08:52:34.308Z,54.60
2019-05-23T08:54:01.016Z,54.70
2019-05-23T08:55:28.074Z,54.70
2019-05-23T08:56:54.583Z,53.80
2019-05-23T08:58:20.754Z,52.80
2019-05-23T08:59:46.775Z,52.40
2019-05-23T09:01:12.407Z,52.00
2019-05-23T09:02:39.083Z,52.00
2019-05-23T09:04:05.135Z,51.20
2019-05-23T09:05:33.068Z,51.70
2019-05-23T09:06:59.259Z,51.10
2019-05-23T09:08:26.415Z,50.60
2019-05-23T09:09:52.620Z,49.60
2019-05-23T09:11:19.920Z,49.00
2019-05-23T09:12:45.416Z,48.70
2019-05-23T09:14:11.663Z,49.80
2019-05-23T09:15:37.801Z,51.20
2019-05-23T09:17:04.260Z,51.90
2019-05-23T09:18:29.906Z,49.50
2019-05-23T09:19:55.923Z,49.10
2019-05-23T09:21:21.495Z,49.50
2019-05-23T09:22:47.925Z,49.80
2019-05-23T09:24:14.307Z,48.00
2019-05-23T09:25:40.628Z,46.10
2019-05-23T09:27:06.801Z,45.90
2019-05-23T09:28:33.118Z,46.20
2019-05-23T09:29:59.573Z,46.20
2019-05-23T09:31:25.933Z,46.10
2019-05-23T09:32:51.584Z,46.10
2019-05-23T09:34:17.601Z,46.70
2019-05-23T09:35:43.755Z,48.10
2019-05-23T09:37:10.845Z,49.90
2019-05-23T09:38:36.452Z,51.10
2019-05-23T09:40:02.903Z,50.50
2019-05-23T09:41:28.440Z,50.50
2019-05-23T09:42:54.594Z,49.60
2019-05-23T09:44:20.093Z,50.00
2019-05-23T09:45:46.292Z,50.30
2019-05-23T09:47:11.856Z,50.40
2019-05-23T09:48:37.963Z,48.70
2019-05-23T09:50:04.312Z,48.90
2019-05-23T09:51:30.506Z,49.50
2019-05-23T09:52:56.211Z,50.40
2019-05-23T09:54:22.848Z,51.20
2019-05-23T09:55:48.396Z,51.70
2019-05-23T09:57:15.370Z,53.60
2019-05-23T09:58:40.918Z,55.70
2019-05-23T10:00:10.170Z,56.10
2019-05-23T10:01:35.841Z,57.40
2019-05-23T10:03:02.921Z,58.10
2019-05-23T10:04:28.380Z,58.40
2019-05-23T10:05:54.623Z,58.70
2019-05-23T10:07:20.418Z,59.60
2019-05-23T10:08:46.621Z,60.50
2019-05-23T10:10:13.104Z,60.90
2019-05-23T10:11:39.290Z,60.70
2019-05-23T10:13:05.123Z,60.50
2019-05-23T10:14:34.323Z,61.60
2019-05-23T10:16:06.028Z,61.60
2019-05-23T10:17:32.531Z,61.40
2019-05-23T10:18:58.275Z,61.90
2019-05-23T10:20:28.119Z,62.00
2019-05-23T10:21:53.927Z,62.40
2019-05-23T10:23:20.186Z,61.90
2019-05-23T10:24:45.652Z,62.00
2019-05-23T10:26:11.812Z,61.90
2019-05-23T10:27:37.317Z,61.70
2019-05-23T10:29:03.392Z,60.90
2019-05-23T10:30:29.504Z,60.40
2019-05-23T10:31:55.564Z,60.40
2019-05-23T10:33:21.133Z,61.40
2019-05-23T10:34:47.556Z,61.90
2019-05-23T10:36:13.253Z,61.80
2019-05-23T10:37:39.533Z,61.40
2019-05-23T10:39:07.687Z,61.00
2019-05-23T10:40:33.833Z,61.30
2019-05-23T10:41:59.776Z,61.60
2019-05-23T10:43:26.063Z,61.60
2019-05-23T10:44:51.659Z,62.20
2019-05-23T10:46:18.339Z,61.90
2019-05-23T10:47:43.933Z,61.70
2019-05-23T10:49:10.568Z,60.90
2019-05-23T10:50:44.706Z,60.70
2019-05-23T10:52:03.733Z,60.80
2019-05-23T10:53:29.387Z,60.40
2019-05-23T10:54:55.582Z,60.30
2019-05-23T10:56:21.729Z,59.70
2019-05-23T10:57:47.930Z,60.10
2019-05-23T10:59:13.419Z,59.50
2019-05-23T11:00:40.109Z,59.20
2019-05-23T11:02:07.150Z,58.80
2019-05-23T11:03:33.348Z,58.60
2019-05-23T11:04:59.102Z,59.10
2019-05-23T11:06:25.725Z,57.50
2019-05-23T11:07:51.812Z,57.90
2019-05-23T11:09:18.045Z,57.80
2019-05-23T11:10:43.737Z,58.10
2019-05-23T11:12:09.888Z,58.20
2019-05-23T11:13:35.584Z,58.20
2019-05-23T11:15:02.062Z,57.70
2019-05-23T11:16:28.317Z,57.90
2019-05-23T11:17:54.771Z,57.90
2019-05-23T11:19:20.880Z,57.30
2019-05-23T11:20:46.921Z,57.90
2019-05-23T11:22:12.703Z,58.50
2019-05-23T11:23:43.327Z,58.90
2019-05-23T11:25:11.858Z,58.80
2019-05-23T11:26:38.471Z,58.90
2019-05-23T11:28:06.636Z,59.10
2019-05-23T11:29:32.678Z,59.30
2019-05-23T11:30:58.716Z,59.30
2019-05-23T11:32:24.746Z,58.90
2019-05-23T11:33:50.273Z,58.10
2019-05-23T11:35:16.524Z,58.20
2019-05-23T11:36:42.263Z,58.20
2019-05-23T11:38:08.349Z,58.20
2019-05-23T11:39:34.088Z,58.20
2019-05-23T11:41:00.356Z,57.30
2019-05-23T11:42:26.095Z,57.20
2019-05-23T11:43:53.851Z,56.60
2019-05-23T11:45:19.628Z,57.10
2019-05-23T11:46:45.767Z,57.10
2019-05-23T11:48:11.711Z,56.70
2019-05-23T11:49:37.912Z,57.00
2019-05-23T11:51:03.660Z,57.30
2019-05-23T11:52:48.206Z,57.00
2019-05-23T11:54:17.521Z,57.20
2019-05-23T11:55:43.712Z,57.70
2019-05-23T11:57:11.907Z,57.70
2019-05-23T11:58:37.604Z,57.80
2019-05-23T12:00:05.627Z,57.90
2019-05-23T12:01:42.376Z,58.10
2019-05-23T12:03:08.739Z,58.30
2019-05-23T12:04:40.151Z,58.20
2019-05-23T12:06:06.453Z,58.30
2019-05-23T12:07:32.845Z,58.40
2019-05-23T12:08:59.112Z,58.10
2019-05-23T12:10:25.017Z,58.00
2019-05-23T12:11:51.737Z,57.60
2019-05-23T12:13:17.291Z,57.00
2019-05-23T12:14:43.763Z,56.90
2019-05-23T12:16:10.914Z,56.50
2019-05-23T12:17:37.028Z,56.90
2019-05-23T12:19:03.109Z,57.10
2019-05-23T12:20:30.153Z,57.00
2019-05-23T12:21:55.860Z,56.90
2019-05-23T12:23:22.035Z,57.40
2019-05-23T12:24:47.523Z,57.80
2019-05-23T12:26:13.630Z,58.10
2019-05-23T12:27:39.464Z,58.10
2019-05-23T12:29:05.765Z,58.00
2019-05-23T12:30:31.352Z,57.90
2019-05-23T12:31:57.709Z,58.00
2019-05-23T12:33:26.188Z,58.10
2019-05-23T12:35:09.757Z,58.10
2019-05-23T12:36:19.887Z,58.10
2019-05-23T12:37:45.984Z,58.00
2019-05-23T12:39:11.884Z,57.60
2019-05-23T12:40:38.200Z,57.30
2019-05-23T12:42:03.771Z,57.50
2019-05-23T12:43:29.939Z,57.40
2019-05-23T12:44:55.430Z,57.10
2019-05-23T12:46:21.563Z,56.30
2019-05-23T12:47:58.311Z,56.60
2019-05-23T12:49:32.080Z,57.00
2019-05-23T12:50:58.102Z,56.70
2019-05-23T12:52:24.187Z,55.80
2019-05-23T12:53:50.223Z,55.50
2019-05-23T12:55:16.811Z,55.30
2019-05-23T12:56:42.404Z,56.50
2019-05-23T12:58:08.527Z,56.90
2019-05-23T12:59:34.137Z,56.90
2019-05-23T13:01:02.229Z,56.80
2019-05-23T13:02:28.649Z,57.00
2019-05-23T13:03:54.914Z,57.20
2019-05-23T13:05:21.515Z,56.80
2019-05-23T13:06:48.161Z,57.00
2019-05-23T13:08:13.957Z,56.90
2019-05-23T13:09:40.880Z,56.30
2019-05-23T13:11:06.921Z,56.80
2019-05-23T13:12:33.162Z,56.50
2019-05-23T13:13:58.758Z,56.40
2019-05-23T13:15:24.921Z,55.90
2019-05-23T13:16:50.368Z,55.80
2019-05-23T13:18:16.615Z,56.20
2019-05-23T13:19:56.045Z,57.10
2019-05-23T13:21:22.428Z,57.20
2019-05-23T13:22:48.039Z,57.70
2019-05-23T13:24:14.325Z,58.30
2019-05-23T13:25:39.948Z,59.00
2019-05-23T13:27:06.528Z,58.80
2019-05-23T13:28:32.320Z,58.90
2019-05-23T13:29:58.374Z,59.40
2019-05-23T13:31:24.156Z,59.30
2019-05-23T13:32:50.455Z,59.20
2019-05-23T13:34:15.956Z,59.10
2019-05-23T13:35:42.839Z,59.30
2019-05-23T13:37:10.257Z,59.70
2019-05-23T13:38:36.780Z,59.50
2019-05-23T13:40:02.571Z,59.70
2019-05-23T13:41:28.772Z,59.90
2019-05-23T13:42:54.418Z,60.00
2019-05-23T13:44:32.617Z,60.20
2019-05-23T13:45:48.474Z,60.20
2019-05-23T13:47:14.513Z,60.30
2019-05-23T13:48:40.219Z,60.00
2019-05-23T13:50:07.882Z,60.20
2019-05-23T13:51:33.461Z,60.00
2019-05-23T13:53:00.739Z,59.70
2019-05-23T13:54:26.832Z,59.50
2019-05-23T13:55:53.429Z,59.40
2019-05-23T13:57:18.906Z,59.20
2019-05-23T13:58:46.102Z,59.00
2019-05-23T14:00:12.950Z,59.10
2019-05-23T14:01:40.508Z,58.70
2019-05-23T14:03:07.397Z,58.70
2019-05-23T14:04:33.656Z,56.80
2019-05-23T14:05:59.251Z,57.90
2019-05-23T14:07:26.461Z,57.90
2019-05-23T14:08:52.241Z,58.10
2019-05-23T14:10:19.072Z,57.20
2019-05-23T14:11:44.728Z,57.30
2019-05-23T14:13:11.009Z,57.60
2019-05-23T14:14:36.463Z,56.70
2019-05-23T14:16:02.920Z,56.70
2019-05-23T14:17:41.572Z,57.50
2019-05-23T14:19:07.951Z,58.20
2019-05-23T14:20:33.748Z,58.50
2019-05-23T14:21:59.916Z,59.20
2019-05-23T14:23:30.157Z,59.20
2019-05-23T14:24:56.216Z,59.50
2019-05-23T14:26:22.435Z,59.30
2019-05-23T14:28:12.908Z,59.40
2019-05-23T14:29:38.547Z,58.90
2019-05-23T14:31:08.605Z,59.60
2019-05-23T14:32:54.111Z,59.50
2019-05-23T14:34:21.248Z,59.00
2019-05-23T14:35:47.217Z,59.10
2019-05-23T14:37:23.398Z,59.90
2019-05-23T14:38:48.848Z,59.90
2019-05-23T14:40:16.268Z,60.00
2019-05-23T14:41:48.803Z,59.70
2019-05-23T14:43:19.131Z,59.50
2019-05-23T14:44:44.734Z,59.70
2019-05-23T14:46:13.317Z,60.10
2019-05-23T14:47:55.592Z,60.00
2019-05-23T14:49:26.996Z,59.80
2019-05-23T14:51:23.691Z,60.10
2019-05-23T14:52:50.353Z,59.80
2019-05-23T14:54:23.717Z,60.20
2019-05-23T14:55:50.746Z,60.10
2019-05-23T14:57:17.652Z,59.70
2019-05-23T14:58:43.448Z,60.50
2019-05-23T15:00:10.805Z,60.00
2019-05-23T15:01:36.399Z,60.70
2019-05-23T15:03:02.741Z,60.60
2019-05-23T15:04:28.730Z,60.30
2019-05-23T15:05:54.960Z,60.40
2019-05-23T15:07:20.733Z,60.60
2019-05-23T15:08:50.924Z,60.80
2019-05-23T15:10:16.135Z,61.00
2019-05-23T15:11:42.235Z,61.20
2019-05-23T15:13:10.761Z,61.10
2019-05-23T15:14:36.963Z,60.50
2019-05-23T15:16:06.139Z,60.90
2019-05-23T15:17:32.508Z,59.20
2019-05-23T15:18:58.244Z,60.50
2019-05-23T15:20:24.506Z,60.30
2019-05-23T15:21:49.999Z,61.00
2019-05-23T15:23:16.557Z,60.40
2019-05-23T15:24:42.139Z,60.70
2019-05-23T15:26:22.398Z,60.50
2019-05-23T15:27:35.464Z,59.90
2019-05-23T15:29:01.612Z,60.60
2019-05-23T15:30:27.361Z,60.60
2019-05-23T15:32:02.496Z,59.20
2019-05-23T15:33:20.637Z,59.80
2019-05-23T15:34:46.760Z,59.10
2019-05-23T15:36:12.257Z,58.40
2019-05-23T15:37:38.523Z,53.70
2019-05-23T15:39:09.311Z,55.60
2019-05-23T15:40:32.630Z,56.50
2019-05-23T15:41:58.274Z,56.00
2019-05-23T15:43:24.327Z,56.50
2019-05-23T15:44:50.098Z,51.80
2019-05-23T15:46:16.324Z,49.10
2019-05-23T15:47:41.920Z,51.50
2019-05-23T15:49:08.777Z,51.90
2019-05-23T15:50:48.670Z,55.90
2019-05-23T15:52:36.440Z,56.40
2019-05-23T15:54:09.799Z,55.70
2019-05-23T15:55:54.323Z,56.60
2019-05-23T15:57:27.140Z,57.20
2019-05-23T15:59:02.248Z,56.40
2019-05-23T16:00:49.368Z,56.30
2019-05-23T16:02:24.231Z,56.80
2019-05-23T16:04:11.640Z,58.10
2019-05-23T16:05:38.270Z,57.90
2019-05-23T16:07:04.162Z,58.50
2019-05-23T16:08:30.437Z,58.30
2019-05-23T16:09:56.124Z,58.20
2019-05-23T16:11:22.984Z,58.20
2019-05-23T16:12:48.453Z,59.00
2019-05-23T16:14:15.231Z,56.80
2019-05-23T16:15:41.524Z,57.10
2019-05-23T16:17:08.483Z,57.80
2019-05-23T16:18:34.655Z,58.30
2019-05-23T16:20:00.644Z,58.20
2019-05-23T16:21:26.556Z,58.10
2019-05-23T16:22:52.602Z,56.90
2019-05-23T16:24:18.456Z,57.70
2019-05-23T16:25:44.472Z,58.10
2019-05-23T16:27:10.497Z,57.80
2019-05-23T16:28:36.629Z,58.10
2019-05-23T16:30:02.296Z,57.30
2019-05-23T16:31:28.416Z,57.20
2019-05-23T16:32:54.164Z,57.50
2019-05-23T16:34:20.464Z,58.30
2019-05-23T16:35:46.232Z,59.10
2019-05-23T16:37:12.590Z,58.20
2019-05-23T16:38:38.176Z,57.70
2019-05-23T16:40:04.336Z,55.30
2019-05-23T16:41:29.904Z,54.00
2019-05-23T16:42:56.125Z,56.70
2019-05-23T16:44:21.582Z,57.10
2019-05-23T16:45:47.901Z,57.20
2019-05-23T16:47:13.455Z,57.10
2019-05-23T16:48:39.672Z,57.00
2019-05-23T16:50:05.448Z,57.80
2019-05-23T16:51:31.604Z,58.00
2019-05-23T16:52:57.179Z,58.40
2019-05-23T16:54:26.359Z,58.60
2019-05-23T16:56:10.756Z,59.30
2019-05-23T16:57:43.030Z,58.70
2019-05-23T16:59:25.682Z,58.90
2019-05-23T17:01:23.406Z,59.20
2019-05-23T17:02:43.133Z,58.70
2019-05-23T17:04:36.700Z,59.40
2019-05-23T17:06:33.718Z,59.60
2019-05-23T17:08:07.068Z,60.10
2019-05-23T17:10:08.103Z,58.30
2019-05-23T17:11:34.503Z,59.10
2019-05-23T17:13:21.766Z,59.20
2019-05-23T17:15:06.057Z,59.20
2019-05-23T17:16:38.339Z,59.60
2019-05-23T17:18:18.351Z,59.80
2019-05-23T17:19:52.053Z,59.70
2019-05-23T17:21:34.361Z,60.20
2019-05-23T17:23:09.057Z,60.10
2019-05-23T17:24:40.420Z,60.20
2019-05-23T17:26:15.217Z,60.40
2019-05-23T17:27:49.562Z,60.30
2019-05-23T17:29:24.725Z,60.00
2019-05-23T17:30:56.074Z,59.90
2019-05-23T17:32:25.641Z,58.80
2019-05-23T17:33:51.874Z,58.60
2019-05-23T17:35:18.113Z,58.50
2019-05-23T17:36:43.669Z,59.60
2019-05-23T17:38:09.829Z,59.80
2019-05-23T17:39:36.216Z,59.70
2019-05-23T17:41:02.507Z,58.90
2019-05-23T17:42:28.144Z,58.40
2019-05-23T17:43:54.771Z,58.50
2019-05-23T17:45:20.644Z,59.00
2019-05-23T17:46:46.902Z,59.40
2019-05-23T17:48:12.835Z,59.70
2019-05-23T17:49:39.261Z,59.30
2019-05-23T17:51:04.820Z,58.70
2019-05-23T17:52:31.497Z,59.20
2019-05-23T17:53:56.956Z,59.90
2019-05-23T17:55:23.086Z,59.90
2019-05-23T17:56:48.777Z,60.20
2019-05-23T17:58:14.968Z,60.90
2019-05-23T17:59:41.122Z,60.50
2019-05-23T18:01:07.714Z,60.50
2019-05-23T18:02:33.460Z,60.20
2019-05-23T18:03:59.653Z,61.00
2019-05-23T18:05:25.214Z,60.60
2019-05-23T18:06:51.930Z,60.80
2019-05-23T18:08:19.022Z,60.10
2019-05-23T18:09:45.250Z,60.50
2019-05-23T18:11:10.719Z,60.40
2019-05-23T18:12:37.153Z,60.80
2019-05-23T18:14:04.112Z,60.60
2019-05-23T18:15:30.337Z,60.60
2019-05-23T18:16:56.108Z,60.70
2019-05-23T18:18:25.859Z,61.30
2019-05-23T18:19:51.435Z,61.50
2019-05-23T18:21:18.088Z,61.20
2019-05-23T18:22:45.796Z,61.10
2019-05-23T18:24:12.439Z,60.90
2019-05-23T18:25:38.128Z,60.90
2019-05-23T18:27:05.490Z,60.50
2019-05-23T18:28:31.536Z,60.50
2019-05-23T18:29:58.966Z,60.50
2019-05-23T18:31:30.628Z,60.50
2019-05-23T18:32:59.694Z,60.50
2019-05-23T18:34:26.621Z,60.40
2019-05-23T18:36:04.437Z,60.60
2019-05-23T18:37:30.018Z,60.80
2019-05-23T18:38:57.371Z,60.80
2019-05-23T18:40:22.879Z,60.60
2019-05-23T18:41:49.764Z,60.60
2019-05-23T18:43:17.788Z,60.70
2019-05-23T18:44:45.085Z,60.60
2019-05-23T18:46:16.125Z,60.90
2019-05-23T18:47:43.527Z,61.50
2019-05-23T18:49:10.897Z,62.00
2019-05-23T18:50:38.677Z,62.50
2019-05-23T18:52:04.935Z,62.70
2019-05-23T18:53:31.255Z,63.00